Time;durP1;ratioP1;P1;durP2;ratioP2;P2;SDS_P1;SDS_P2;PMS_P1;PMS_P2;Temp;Humidity;BMP_temperature;BMP_pressure;BME280_temperature;BME280_humidity;BME280_pressure;Samples;Min_cycle;Max_cycle;Signal;HPM_P1;HPM_P2
2022/05/25 00:02:21;;;;;;;10.35;7.43;;;;;;;18.32;88.67;99841.84;5048657;28;20496;-68
2022/05/25 00:04:47;;;;;;;9.35;7.97;;;;;;;18.36;88.79;99873.03;5046917;28;20082;-69
2022/05/25 00:07:14;;;;;;;9.25;8.35;;;;;;;18.32;89.56;99854.56;5039315;28;20029;-69
2022/05/25 00:09:39;;;;;;;11.40;10.00;;;;;;;18.33;91.62;99848.09;5040107;28;20510;-70
2022/05/25 00:12:06;;;;;;;11.85;10.20;;;;;;;18.34;93.17;99855.22;5027481;28;20041;-71
2022/05/25 00:14:32;;;;;;;11.00;9.88;;;;;;;18.23;93.67;99855.72;5037645;28;20377;-71
2022/05/25 00:16:58;;;;;;;11.15;9.15;;;;;;;18.30;93.73;99881.06;5032675;28;20028;-72
2022/05/25 00:22:08;;;;;;;12.60;10.23;;;;;;;18.23;95.45;99919.03;5032507;28;20028;-72
2022/05/25 00:24:33;;;;;;;9.50;8.48;;;;;;;18.23;94.01;99920.88;5027636;28;20037;-71
2022/05/25 00:26:59;;;;;;;12.65;9.57;;;;;;;18.25;94.03;99937.84;5055308;28;20037;-71
2022/05/25 00:29:25;;;;;;;11.75;9.07;;;;;;;18.22;93.19;99914.63;5031916;28;20040;-72
2022/05/25 00:31:51;;;;;;;10.73;9.63;;;;;;;18.06;94.45;99890.44;5027445;28;20087;-72
2022/05/25 00:34:17;;;;;;;13.68;9.60;;;;;;;18.08;95.22;99933.69;5029453;28;20045;-70
2022/05/25 00:36:42;;;;;;;9.45;8.55;;;;;;;17.99;95.37;99930.22;5029807;28;20127;-71
2022/05/25 00:39:08;;;;;;;9.38;8.38;;;;;;;17.99;95.13;99955.50;5032343;28;20127;-71
2022/05/25 00:41:34;;;;;;;9.60;8.48;;;;;;;18.04;94.56;99963.06;5037016;28;20159;-71
2022/05/25 00:44:00;;;;;;;9.10;7.82;;;;;;;18.04;94.34;99979.34;5044719;28;20662;-71
2022/05/25 00:46:27;;;;;;;9.65;8.60;;;;;;;17.98;94.52;99966.53;5047100;28;20025;-71
2022/05/25 00:48:56;;;;;;;9.60;8.30;;;;;;;17.99;95.37;99955.50;5032232;28;20033;-71
2022/05/25 00:51:29;;;;;;;12.10;8.73;;;;;;;17.98;95.13;99956.53;5046378;28;20081;-70
2022/05/25 00:54:01;;;;;;;10.18;8.18;;;;;;;17.93;94.37;99937.25;5047105;28;20346;-71
2022/05/25 00:56:29;;;;;;;8.73;7.90;;;;;;;18.00;94.44;99956.34;5046872;28;20048;-71
2022/05/25 00:59:09;;;;;;;10.10;7.72;;;;;;;17.96;95.50;99963.19;5031274;28;20158;-71
2022/05/25 01:01:34;;;;;;;8.98;7.45;;;;;;;17.94;94.19;99965.25;5047013;28;20033;-71
2022/05/25 01:04:00;;;;;;;9.18;7.43;;;;;;;18.01;94.13;99983.31;5047087;28;20515;-71
2022/05/25 01:06:34;;;;;;;8.18;7.40;;;;;;;18.02;94.26;99984.97;5037778;28;20037;-72
2022/05/25 01:09:24;;;;;;;8.80;7.65;;;;;;;18.04;95.77;99987.50;5044640;28;20382;-70
2022/05/25 01:12:29;;;;;;;10.65;8.05;;;;;;;17.97;97.38;99959.44;5033862;28;20897;-71
2022/05/25 01:15:12;;;;;;;10.35;7.68;;;;;;;18.01;96.80;99956.16;5035579;28;20040;-71
2022/05/25 01:18:05;;;;;;;10.93;7.43;;;;;;;17.97;95.39;99954.00;5045521;28;20024;-71
2022/05/25 01:20:56;;;;;;;7.65;6.88;;;;;;;17.98;94.67;99944.84;5031382;28;20435;-71
2022/05/25 01:23:31;;;;;;;13.77;7.20;;;;;;;17.94;94.25;99936.25;5049596;28;20032;-69
2022/05/25 01:26:28;;;;;;;10.88;7.25;;;;;;;17.91;94.40;99938.50;5037736;28;20029;-70
2022/05/25 01:29:02;;;;;;;9.95;7.75;;;;;;;17.92;94.95;99940.16;5049652;28;20036;-71
2022/05/25 01:31:35;;;;;;;8.40;7.50;;;;;;;17.83;94.86;99931.28;5042049;28;20404;-72
2022/05/25 01:34:25;;;;;;;8.60;7.53;;;;;;;17.86;95.53;99935.50;5038683;28;21477;-70
2022/05/25 01:37:15;;;;;;;11.57;8.00;;;;;;;17.85;95.40;99939.25;5057346;28;20033;-72
2022/05/25 01:39:46;;;;;;;9.98;8.30;;;;;;;17.74;95.67;99928.91;5050171;28;20040;-71
2022/05/25 01:42:39;;;;;;;13.57;9.57;;;;;;;17.76;95.63;99945.81;5036740;28;20480;-72
2022/05/25 01:45:08;;;;;;;9.07;8.27;;;;;;;17.73;96.20;99940.75;5043867;28;20041;-72
2022/05/25 01:47:34;;;;;;;9.63;8.77;;;;;;;17.74;96.05;99932.44;5035266;28;20021;-72
2022/05/25 01:50:14;;;;;;;11.45;9.05;;;;;;;17.65;96.49;99922.75;5036475;28;20040;-71
2022/05/25 01:52:44;;;;;;;10.13;9.00;;;;;;;17.65;96.68;99949.00;5044196;28;20052;-71
2022/05/25 01:55:17;;;;;;;9.75;8.75;;;;;;;17.62;97.47;99950.25;5035600;28;20073;-71
2022/05/25 01:57:47;;;;;;;11.43;8.80;;;;;;;17.65;96.97;99941.72;5029993;28;20033;-72
2022/05/25 02:00:35;;;;;;;12.35;9.20;;;;;;;17.56;97.28;99931.16;5037727;28;20025;-73
2022/05/25 02:05:59;;;;;;;11.65;9.50;;;;;;;17.55;97.15;99929.47;5037930;28;20043;-72
2022/05/25 02:08:58;;;;;;;12.40;9.50;;;;;;;17.57;97.59;99919.25;5030189;28;20121;-71
2022/05/25 02:11:48;;;;;;;10.98;9.32;;;;;;;17.57;97.77;99913.84;5045413;28;20052;-71
2022/05/25 02:14:42;;;;;;;11.23;9.32;;;;;;;17.51;97.93;99909.19;5031518;28;20037;-72
2022/05/25 02:17:40;;;;;;;13.20;9.57;;;;;;;17.37;98.15;99870.19;5021626;28;20037;-73
2022/05/25 02:20:28;;;;;;;10.45;9.40;;;;;;;17.42;98.40;99880.47;5035834;28;20068;-72
2022/05/25 02:23:00;;;;;;;11.27;10.10;;;;;;;17.36;99.22;99879.34;5047124;28;20029;-73
2022/05/25 02:25:34;;;;;;;12.52;9.88;;;;;;;17.38;98.92;99879.16;5045433;28;20020;-72
2022/05/25 02:28:03;;;;;;;11.18;9.95;;;;;;;17.37;99.56;99874.75;5036212;28;20075;-72
2022/05/25 02:30:34;;;;;;;12.40;9.88;;;;;;;17.36;99.22;99864.94;5046648;28;20033;-72
2022/05/25 02:33:09;;;;;;;10.93;9.48;;;;;;;17.33;99.16;99846.34;5043239;28;20029;-72
2022/05/25 02:35:36;;;;;;;10.18;9.07;;;;;;;17.23;99.01;99845.81;5033622;28;20037;-71
2022/05/25 02:38:05;;;;;;;14.52;9.68;;;;;;;17.24;99.19;99851.03;5040544;28;20040;-72
2022/05/25 02:40:34;;;;;;;10.48;9.38;;;;;;;17.21;99.68;99847.84;5036718;28;20036;-72
2022/05/25 02:42:59;;;;;;;11.55;9.63;;;;;;;17.17;99.79;99841.13;5037919;28;20036;-71
2022/05/25 02:45:25;;;;;;;11.32;10.13;;;;;;;17.12;100.00;99838.16;5043558;28;20033;-72
2022/05/25 02:47:50;;;;;;;10.32;8.95;;;;;;;17.10;100.00;99837.50;5038840;28;20029;-72
2022/05/25 02:50:16;;;;;;;10.85;9.32;;;;;;;17.05;100.00;99831.78;5042289;28;20024;-72
2022/05/25 02:52:42;;;;;;;10.20;9.25;;;;;;;17.06;100.00;99838.91;5049123;28;20033;-71
2022/05/25 02:55:08;;;;;;;9.95;8.43;;;;;;;16.96;100.00;99835.66;5040727;28;20041;-71
2022/05/25 02:57:33;;;;;;;12.32;9.18;;;;;;;16.95;100.00;99850.19;5028803;28;20504;-72
2022/05/25 02:59:59;;;;;;;9.07;8.23;;;;;;;16.99;100.00;99849.63;5029173;28;20034;-72
2022/05/25 03:02:25;;;;;;;12.75;9.02;;;;;;;16.94;100.00;99851.25;5028865;28;20033;-71
2022/05/25 03:04:50;;;;;;;12.30;9.40;;;;;;;16.96;100.00;99857.31;5028935;28;20061;-72
2022/05/25 03:07:16;;;;;;;9.43;8.45;;;;;;;16.89;100.00;99832.81;5028681;28;20026;-71
2022/05/25 03:09:42;;;;;;;10.32;8.57;;;;;;;16.92;100.00;99845.16;5028705;28;20072;-71
2022/05/25 03:12:09;;;;;;;9.13;8.15;;;;;;;16.95;100.00;99850.19;5028789;28;20048;-71
2022/05/25 03:14:35;;;;;;;11.50;8.55;;;;;;;16.92;100.00;99848.72;5028751;28;20025;-71
2022/05/25 03:17:12;;;;;;;9.82;7.85;;;;;;;16.91;100.00;99857.88;5028732;28;20041;-69
2022/05/25 03:19:39;;;;;;;8.95;7.75;;;;;;;16.86;100.00;99863.00;5028596;28;20105;-71
2022/05/25 03:22:06;;;;;;;10.10;7.20;;;;;;;16.90;100.00;99855.34;5028408;28;20025;-70
2022/05/25 03:24:31;;;;;;;10.20;7.57;;;;;;;16.84;100.00;99862.34;5028447;28;20033;-71
2022/05/25 03:26:58;;;;;;;8.02;7.25;;;;;;;16.93;100.00;99873.94;5028425;28;20025;-70
2022/05/25 03:29:23;;;;;;;7.68;6.88;;;;;;;16.87;100.00;99866.56;5026643;28;20033;-72
2022/05/25 03:31:50;;;;;;;8.05;7.25;;;;;;;16.87;100.00;99871.97;5028142;28;20039;-71
2022/05/25 03:34:17;;;;;;;12.18;7.65;;;;;;;16.89;100.00;99886.16;5027824;28;20381;-71
2022/05/25 03:36:43;;;;;;;8.32;6.88;;;;;;;16.82;100.00;99885.22;5060032;28;20047;-71
2022/05/25 03:39:09;;;;;;;7.85;7.05;;;;;;;16.87;100.00;99899.91;5027914;28;20116;-71
2022/05/25 03:41:34;;;;;;;8.35;6.53;;;;;;;16.89;100.00;99913.25;5027140;28;20069;-71
2022/05/25 03:43:59;;;;;;;7.90;7.10;;;;;;;16.86;100.00;99910.94;5028279;28;20041;-71
2022/05/25 03:46:25;;;;;;;9.60;7.22;;;;;;;16.83;100.00;99908.59;5027896;28;20029;-72
2022/05/25 03:48:50;;;;;;;9.27;6.93;;;;;;;16.87;100.00;99928.88;5027287;28;20047;-70
2022/05/25 03:51:16;;;;;;;11.65;7.38;;;;;;;16.88;100.00;99933.25;5027577;28;20048;-71
2022/05/25 03:53:42;;;;;;;11.32;6.97;;;;;;;16.79;100.00;99935.19;5027491;28;20021;-71
2022/05/25 03:56:08;;;;;;;8.40;6.95;;;;;;;16.89;100.00;99943.91;5027619;28;20474;-70
2022/05/25 03:58:33;;;;;;;10.48;6.80;;;;;;;16.85;100.00;99936.31;5027592;28;20021;-71
2022/05/25 04:00:59;;;;;;;8.82;6.45;;;;;;;16.89;100.00;99932.22;5027610;28;20037;-71
2022/05/25 04:03:24;;;;;;;7.82;5.93;;;;;;;16.96;100.00;99938.59;5027483;28;20032;-72
2022/05/25 04:05:50;;;;;;;7.78;6.40;;;;;;;16.88;100.00;99927.81;5027401;28;20053;-70
2022/05/25 04:08:15;;;;;;;13.15;6.93;;;;;;;16.98;100.00;99936.53;5027152;28;20049;-71
2022/05/25 04:10:41;;;;;;;9.25;6.80;;;;;;;16.99;100.00;99938.22;5027620;28;20040;-70
2022/05/25 04:13:06;;;;;;;8.57;6.50;;;;;;;16.97;100.00;99933.00;5026655;28;20056;-69
2022/05/25 04:15:33;;;;;;;8.13;6.00;;;;;;;17.00;100.00;99927.22;5027639;28;20128;-72
2022/05/25 04:17:58;;;;;;;8.98;6.90;;;;;;;16.98;100.00;99921.13;5027071;28;20693;-71
2022/05/25 04:20:26;;;;;;;7.72;6.60;;;;;;;17.12;100.00;99947.38;5056361;28;20036;-71
2022/05/25 04:22:52;;;;;;;8.55;7.03;;;;;;;17.16;100.00;99953.28;5027436;28;20112;-71
2022/05/25 04:25:20;;;;;;;8.60;6.53;;;;;;;17.26;100.00;99938.44;5027529;28;20159;-71
2022/05/25 04:27:47;;;;;;;8.52;6.20;;;;;;;17.41;100.00;99946.56;5027651;28;20057;-71
2022/05/25 04:30:16;;;;;;;9.75;6.50;;;;;;;17.58;99.75;99942.66;5027503;28;20120;-71
2022/05/25 04:32:42;;;;;;;9.52;6.32;;;;;;;17.70;98.72;99941.13;5027422;28;20021;-69
2022/05/25 04:35:09;;;;;;;7.45;6.22;;;;;;;17.80;98.54;99933.56;5028855;28;20095;-69
2022/05/25 04:37:49;;;;;;;7.13;6.32;;;;;;;18.02;97.27;99937.97;5027081;28;20104;-69
2022/05/25 04:40:33;;;;;;;8.27;5.47;;;;;;;18.18;96.45;99948.59;5026290;28;20576;-69
2022/05/25 04:43:02;;;;;;;8.30;5.90;;;;;;;18.27;95.64;99943.88;5026723;28;20055;-69
2022/05/25 04:45:28;;;;;;;11.60;6.80;;;;;;;18.40;94.12;99955.78;5026524;28;20079;-70
2022/05/25 04:47:58;;;;;;;11.93;6.53;;;;;;;18.55;93.29;99963.84;5026890;28;20025;-70
2022/05/25 04:50:27;;;;;;;7.40;6.20;;;;;;;18.69;92.70;99958.34;5029514;28;20037;-69
2022/05/25 04:52:56;;;;;;;9.45;6.70;;;;;;;18.70;92.08;99940.19;5030827;28;20035;-69
2022/05/25 04:58:17;;;;;;;9.63;5.57;;;;;;;18.74;91.91;99965.94;5023286;28;20091;-70
2022/05/25 05:00:42;;;;;;;8.35;6.22;;;;;;;18.72;91.52;99949.81;5030422;28;20097;-69
2022/05/25 05:03:08;;;;;;;10.02;6.20;;;;;;;18.68;91.58;99959.41;5017502;28;20121;-69
2022/05/25 05:05:33;;;;;;;7.78;5.85;;;;;;;18.60;91.34;99964.94;5009191;28;20037;-69
2022/05/25 05:07:58;;;;;;;9.55;5.60;;;;;;;18.60;92.02;99981.25;5015839;28;20549;-69
2022/05/25 05:10:24;;;;;;;8.82;6.53;;;;;;;18.55;92.31;99978.28;5015836;28;20041;-68
2022/05/25 05:12:49;;;;;;;7.45;5.80;;;;;;;18.56;92.58;99982.69;5027847;28;20028;-69
2022/05/25 05:15:15;;;;;;;9.13;6.30;;;;;;;18.53;93.32;99983.06;5045177;28;20041;-68
2022/05/25 05:17:40;;;;;;;6.47;5.05;;;;;;;18.59;92.89;99990.44;5015359;28;20059;-69
2022/05/25 05:20:06;;;;;;;9.70;6.80;;;;;;;18.62;92.69;100005.50;5028134;28;20033;-68
2022/05/25 05:22:32;;;;;;;10.50;6.38;;;;;;;18.61;93.37;99991.09;5029892;28;20025;-67
2022/05/25 05:24:57;;;;;;;9.20;6.32;;;;;;;18.62;93.23;99998.22;5029898;28;20044;-68
2022/05/25 05:27:23;;;;;;;7.40;6.20;;;;;;;18.55;93.81;99986.44;5022151;28;20124;-69
2022/05/25 05:29:48;;;;;;;10.25;6.47;;;;;;;18.61;93.78;99982.94;5030008;28;20060;-69
2022/05/25 05:32:14;;;;;;;10.40;6.35;;;;;;;18.67;93.71;99992.19;5026185;28;20030;-70
2022/05/25 05:34:39;;;;;;;7.20;4.53;;;;;;;18.64;93.43;99970.84;5028559;28;20029;-69
2022/05/25 05:37:12;;;;;;;10.63;6.47;;;;;;;18.79;93.27;99998.78;5030239;28;20025;-70
2022/05/25 05:39:41;;;;;;;7.90;5.82;;;;;;;18.87;93.97;99985.06;5018138;28;20542;-70
2022/05/25 05:42:14;;;;;;;5.28;4.60;;;;;;;19.03;93.93;99996.50;5015416;28;20022;-70
2022/05/25 05:45:03;;;;;;;8.77;6.15;;;;;;;19.23;93.07;100007.53;5030303;28;20390;-70
2022/05/25 05:47:37;;;;;;;11.07;5.95;;;;;;;19.39;91.85;100005.38;5045012;28;20036;-70
2022/05/25 05:50:06;;;;;;;11.00;6.43;;;;;;;19.48;90.99;100009.63;5022014;28;20038;-70
2022/05/25 05:52:33;;;;;;;6.47;5.30;;;;;;;19.64;90.68;100012.03;5029021;28;20481;-70
2022/05/25 05:54:59;;;;;;;8.07;5.25;;;;;;;19.70;90.24;100003.06;5032715;28;20082;-68
2022/05/25 05:57:25;;;;;;;8.07;5.28;;;;;;;19.97;88.88;100014.94;5050917;28;20033;-71
2022/05/25 05:59:50;;;;;;;8.85;5.00;;;;;;;20.09;87.83;100010.59;5029842;28;20037;-70
2022/05/25 06:02:16;;;;;;;12.15;5.85;;;;;;;20.21;86.49;100013.63;5041697;28;20072;-69
2022/05/25 06:04:41;;;;;;;6.72;4.93;;;;;;;20.29;85.74;100016.16;5032459;28;20029;-69
2022/05/25 06:07:07;;;;;;;6.80;5.10;;;;;;;20.36;85.73;100031.47;5029977;28;20405;-68
2022/05/25 06:09:32;;;;;;;7.40;5.18;;;;;;;20.40;85.17;100031.88;5042862;28;20064;-70
2022/05/25 06:11:58;;;;;;;7.68;5.18;;;;;;;20.47;85.03;100043.69;5049692;28;20124;-70
2022/05/25 06:14:23;;;;;;;6.90;5.20;;;;;;;20.54;85.20;100044.53;5064530;28;20071;-70
2022/05/25 06:19:37;;;;;;;5.18;4.43;;;;;;;20.62;84.09;100055.22;5046543;28;20028;-70
2022/05/25 06:22:09;;;;;;;7.93;4.90;;;;;;;20.63;83.32;100056.94;5029499;28;20033;-70
2022/05/25 06:24:38;;;;;;;8.38;5.35;;;;;;;20.57;83.01;100053.13;5029267;28;20087;-69
2022/05/25 06:27:08;;;;;;;7.78;4.80;;;;;;;20.54;83.27;100055.44;5034541;28;20043;-69
2022/05/25 06:29:35;;;;;;;8.77;5.40;;;;;;;20.52;83.66;100052.91;5039305;28;20397;-70
2022/05/25 06:32:00;;;;;;;5.47;4.70;;;;;;;20.63;84.37;100049.56;5029134;28;20060;-69
2022/05/25 06:34:26;;;;;;;9.07;5.80;;;;;;;20.71;84.56;100049.41;5044114;28;20059;-69
2022/05/25 06:36:51;;;;;;;4.30;3.90;;;;;;;20.84;84.44;100052.16;5047358;28;20033;-70
2022/05/25 06:39:17;;;;;;;6.70;4.95;;;;;;;20.91;83.84;100063.06;5048715;28;20036;-70
2022/05/25 06:41:42;;;;;;;5.05;4.55;;;;;;;21.11;83.59;100055.75;5049330;28;20028;-68
2022/05/25 06:44:08;;;;;;;5.90;5.20;;;;;;;21.29;82.55;100067.75;5049351;28;20112;-70
2022/05/25 06:46:33;;;;;;;6.53;5.20;;;;;;;21.34;81.82;100062.50;5048727;28;20048;-70
2022/05/25 06:48:59;;;;;;;7.00;4.88;;;;;;;21.56;81.45;100071.31;5048966;28;20365;-69
2022/05/25 06:51:28;;;;;;;8.68;4.65;;;;;;;21.67;80.08;100073.41;5063580;28;20021;-69
2022/05/25 06:53:54;;;;;;;7.20;4.28;;;;;;;21.75;79.27;100075.94;5048684;28;20067;-70
2022/05/25 06:56:22;;;;;;;6.38;4.20;;;;;;;21.84;79.36;100075.53;5058388;28;20056;-69
2022/05/25 06:58:48;;;;;;;4.82;4.32;;;;;;;22.00;79.53;100068.75;5041430;28;20085;-69
2022/05/25 07:01:13;;;;;;;7.65;4.55;;;;;;;22.18;78.72;100069.75;5029046;28;20029;-69
2022/05/25 07:03:39;;;;;;;6.90;4.80;;;;;;;22.27;77.64;100048.47;5028425;28;20035;-68
2022/05/25 07:06:07;;;;;;;7.55;5.07;;;;;;;22.55;76.42;100068.16;5028625;28;20041;-69
2022/05/25 07:08:32;;;;;;;5.85;4.70;;;;;;;22.74;75.41;100063.63;5028474;28;20057;-69
2022/05/25 07:11:00;;;;;;;5.55;4.20;;;;;;;22.90;75.12;100072.16;5028621;28;20069;-69
2022/05/25 07:13:27;;;;;;;6.72;4.95;;;;;;;22.92;72.50;100061.84;5042582;28;20029;-70
2022/05/25 07:16:04;;;;;;;5.78;4.15;;;;;;;23.06;73.26;100059.84;5027155;28;20075;-70
2022/05/25 07:18:30;;;;;;;6.30;4.60;;;;;;;23.17;73.14;100061.88;5029307;28;20025;-70
2022/05/25 07:21:07;;;;;;;8.52;5.53;;;;;;;23.29;72.07;100058.25;5048208;28;20441;-69
2022/05/25 07:23:38;;;;;;;5.03;4.47;;;;;;;23.42;72.00;100060.88;5063219;28;20025;-68
2022/05/25 07:26:06;;;;;;;9.73;4.97;;;;;;;23.56;71.59;100048.72;5045476;28;20052;-69
2022/05/25 07:28:33;;;;;;;7.63;4.32;;;;;;;23.70;70.08;100058.47;5046448;28;20071;-69
2022/05/25 07:31:03;;;;;;;10.73;5.45;;;;;;;23.84;68.52;100048.25;5047871;28;20044;-70
2022/05/25 07:33:29;;;;;;;10.13;5.35;;;;;;;23.88;68.61;100044.81;5047773;28;20037;-69
2022/05/25 07:35:55;;;;;;;5.57;4.65;;;;;;;24.01;68.06;100055.69;5046599;28;20033;-69
2022/05/25 07:38:20;;;;;;;6.35;4.88;;;;;;;24.11;66.40;100052.38;5035045;28;20040;-69
2022/05/25 07:40:47;;;;;;;6.75;4.60;;;;;;;24.16;65.79;100050.66;5028109;28;20110;-69
2022/05/25 07:43:16;;;;;;;6.80;5.03;;;;;;;24.26;65.50;100064.66;5026865;28;20025;-69
2022/05/25 07:45:44;;;;;;;13.20;6.43;;;;;;;24.31;64.98;100051.09;5034155;28;20074;-69
2022/05/25 07:48:10;;;;;;;8.20;5.80;;;;;;;24.35;64.85;100046.81;5047796;28;20182;-70
2022/05/25 07:50:37;;;;;;;6.07;5.47;;;;;;;24.42;64.59;100041.28;5042269;28;20034;-68
2022/05/25 07:53:04;;;;;;;5.75;4.60;;;;;;;24.59;64.37;100050.53;5029998;28;20029;-70
2022/05/25 07:55:29;;;;;;;6.70;5.20;;;;;;;24.69;64.44;100044.53;5047228;28;20060;-68
2022/05/25 07:57:55;;;;;;;5.45;4.93;;;;;;;24.80;64.30;100044.56;5045978;28;20036;-70
2022/05/25 08:00:24;;;;;;;6.18;5.45;;;;;;;24.95;63.19;100052.38;5037079;28;20385;-69
2022/05/25 08:05:48;;;;;;;6.40;5.10;;;;;;;25.09;62.80;100027.25;5029605;28;20044;-70
2022/05/25 08:08:17;;;;;;;9.20;4.57;;;;;;;25.32;62.26;100035.56;5028191;28;20052;-69
2022/05/25 08:10:46;;;;;;;9.02;4.75;;;;;;;25.42;61.49;100043.19;5047595;28;20606;-69
2022/05/25 08:13:16;;;;;;;7.47;4.55;;;;;;;25.55;61.59;100045.72;5031889;28;20030;-69
2022/05/25 08:15:43;;;;;;;5.63;4.40;;;;;;;25.64;61.79;100042.38;5038559;28;20568;-70
2022/05/25 08:18:14;;;;;;;7.43;4.60;;;;;;;25.75;62.57;100044.28;5046146;28;20095;-70
2022/05/25 08:20:40;;;;;;;8.95;5.20;;;;;;;25.82;62.03;100047.75;5047617;28;20033;-70
2022/05/25 08:23:08;;;;;;;6.35;5.30;;;;;;;25.88;62.66;100045.94;5033249;28;20060;-70
2022/05/25 08:25:35;;;;;;;7.65;5.47;;;;;;;26.01;62.95;100051.22;5027331;28;20071;-69
2022/05/25 08:28:01;;;;;;;7.07;5.45;;;;;;;26.04;62.05;100039.75;5027661;28;20108;-70
2022/05/25 08:30:27;;;;;;;6.90;5.50;;;;;;;26.16;61.07;100040.56;5027540;28;20037;-70
2022/05/25 08:32:53;;;;;;;5.93;5.20;;;;;;;26.16;60.65;100024.91;5032323;28;20037;-71
2022/05/25 08:35:18;;;;;;;7.88;5.10;;;;;;;26.28;60.29;100046.88;5044216;28;20516;-69
2022/05/25 08:37:44;;;;;;;7.60;4.90;;;;;;;26.30;60.49;100037.31;5026853;28;20036;-70
2022/05/25 08:40:13;;;;;;;8.55;5.53;;;;;;;26.38;59.97;100039.66;5041860;28;20050;-70
2022/05/25 08:42:54;;;;;;;7.32;4.70;;;;;;;26.41;60.08;100038.34;5026252;28;20032;-70
2022/05/25 08:45:24;;;;;;;7.65;5.28;;;;;;;26.45;59.52;100043.13;5026128;28;20377;-70
2022/05/25 08:47:56;;;;;;;7.65;5.35;;;;;;;26.52;58.88;100046.56;5032202;28;20025;-71
2022/05/25 08:50:23;;;;;;;8.43;5.88;;;;;;;26.58;58.72;100046.66;5037423;28;20477;-70
2022/05/25 08:52:48;;;;;;;8.80;6.35;;;;;;;26.55;58.57;100034.25;5026554;28;20053;-70
2022/05/25 08:55:31;;;;;;;9.75;5.38;;;;;;;26.60;58.46;100039.00;5026446;28;20222;-71
2022/05/25 08:57:59;;;;;;;11.45;5.90;;;;;;;26.71;58.09;100051.91;5022619;28;20541;-70
2022/05/25 09:00:24;;;;;;;6.38;5.03;;;;;;;26.75;58.01;100033.81;5006200;28;20022;-69
2022/05/25 09:03:22;;;;;;;5.95;5.15;;;;;;;26.82;57.46;100031.78;5011871;28;20084;-69
2022/05/25 09:05:53;;;;;;;8.50;5.72;;;;;;;26.93;57.40;100045.47;5018173;28;20026;-70
2022/05/25 09:08:46;;;;;;;7.85;5.63;;;;;;;26.97;57.39;100040.28;5026230;28;20025;-71
2022/05/25 09:11:16;;;;;;;10.10;5.38;;;;;;;27.02;57.27;100046.72;5026240;28;20087;-69
2022/05/25 09:14:02;;;;;;;5.53;4.82;;;;;;;27.08;56.90;100040.22;5025832;28;20029;-70
2022/05/25 09:16:32;;;;;;;9.88;5.50;;;;;;;27.16;56.52;100037.09;5025788;28;20022;-70
2022/05/25 09:19:10;;;;;;;9.45;6.00;;;;;;;27.17;56.47;100041.50;5025872;28;20485;-71
2022/05/25 09:22:00;;;;;;;5.63;5.05;;;;;;;27.23;56.96;100032.28;5057755;28;20032;-70
2022/05/25 09:24:27;;;;;;;9.15;6.18;;;;;;;27.17;56.88;100024.97;5026453;28;20033;-71
2022/05/25 09:26:54;;;;;;;6.32;5.03;;;;;;;27.34;56.58;100034.09;5026699;28;20041;-71
2022/05/25 09:29:21;;;;;;;8.48;4.80;;;;;;;27.40;56.43;100041.38;5025295;28;20481;-71
2022/05/25 09:32:12;;;;;;;6.65;5.05;;;;;;;27.47;55.27;100043.97;5006631;28;20040;-70
2022/05/25 09:35:09;;;;;;;7.03;5.18;;;;;;;27.55;54.97;100032.50;5007998;28;20029;-69
2022/05/25 09:38:15;;;;;;;6.13;4.93;;;;;;;27.55;54.56;100035.28;5029504;28;20381;-70
2022/05/25 09:40:45;;;;;;;11.98;6.13;;;;;;;27.51;55.44;100034.13;5007333;28;20077;-70
2022/05/25 09:43:20;;;;;;;8.38;5.60;;;;;;;27.41;55.50;100029.28;5025456;28;20048;-70
2022/05/25 09:45:48;;;;;;;6.63;4.95;;;;;;;27.45;56.21;100035.97;5025551;28;20038;-70
2022/05/25 09:48:18;;;;;;;5.65;5.03;;;;;;;27.46;55.67;100029.34;5010298;28;20548;-70
2022/05/25 09:50:49;;;;;;;6.35;4.70;;;;;;;27.50;54.77;100033.28;5040914;28;20094;-70
2022/05/25 09:53:17;;;;;;;7.53;4.88;;;;;;;27.46;55.02;100021.09;5015664;28;20068;-70
2022/05/25 09:55:48;;;;;;;5.25;4.70;;;;;;;27.50;55.02;100021.44;5029330;28;20050;-71
2022/05/25 09:58:33;;;;;;;5.25;4.53;;;;;;;27.58;54.82;100030.09;5015654;28;20045;-69
2022/05/25 10:01:06;;;;;;;8.93;5.43;;;;;;;27.62;54.88;100025.75;5009975;28;20033;-70
2022/05/25 10:03:41;;;;;;;5.63;4.75;;;;;;;27.68;54.97;100027.50;5023758;28;20578;-70
2022/05/25 10:06:27;;;;;;;5.53;4.70;;;;;;;27.72;53.78;100020.38;5017859;28;20030;-71
2022/05/25 10:09:08;;;;;;;8.65;4.53;;;;;;;27.82;53.25;100022.47;5022810;28;20042;-70
2022/05/25 10:11:41;;;;;;;7.13;4.25;;;;;;;27.84;53.08;100004.59;5024847;28;20441;-71
2022/05/25 10:14:27;;;;;;;8.35;5.00;;;;;;;27.98;52.33;100019.69;5010002;28;20418;-71
2022/05/25 10:16:55;;;;;;;6.07;4.88;;;;;;;28.03;52.01;100007.91;5012889;28;20439;-70
2022/05/25 10:19:22;;;;;;;8.45;4.95;;;;;;;28.11;51.05;100008.28;5031703;28;20037;-71
2022/05/25 10:21:54;;;;;;;5.65;4.90;;;;;;;28.08;51.74;100011.56;5029480;28;20160;-69
2022/05/25 10:24:27;;;;;;;5.32;4.82;;;;;;;28.04;51.37;99991.09;5017817;28;20109;-70
2022/05/25 10:26:59;;;;;;;7.05;4.68;;;;;;;28.21;51.17;100010.38;5019365;28;20048;-69
2022/05/25 10:37:53;;;;;;;5.60;4.95;;;;;;;28.36;51.53;100000.34;5010121;28;20104;-71
2022/05/25 10:40:23;;;;;;;6.97;4.80;;;;;;;28.39;51.30;100005.34;5028417;28;20037;-70
2022/05/25 10:42:50;;;;;;;5.28;4.28;;;;;;;28.43;51.71;100008.41;5029121;28;20025;-71
2022/05/25 10:45:21;;;;;;;8.00;5.35;;;;;;;28.48;51.27;100003.84;5028410;28;20052;-72
2022/05/25 10:47:52;;;;;;;7.28;5.00;;;;;;;28.49;51.67;99997.22;5010052;28;20814;-71
2022/05/25 10:50:45;;;;;;;7.47;5.32;;;;;;;28.52;51.47;100002.22;5028989;28;20040;-71
2022/05/25 10:53:22;;;;;;;7.60;5.10;;;;;;;28.58;51.87;99991.22;5018044;28;20033;-70
2022/05/25 10:55:58;;;;;;;5.90;5.28;;;;;;;28.57;51.71;99995.09;5018724;28;20093;-71
2022/05/25 10:58:33;;;;;;;8.75;5.38;;;;;;;28.60;51.42;100002.84;5012082;28;20038;-71
2022/05/25 11:01:09;;;;;;;6.03;4.50;;;;;;;28.65;50.59;99991.84;5027638;28;20116;-71
2022/05/25 11:03:59;;;;;;;6.88;4.40;;;;;;;28.67;49.88;99982.22;5015724;28;20102;-71
2022/05/25 11:06:46;;;;;;;5.90;4.45;;;;;;;28.72;50.32;99990.56;5028700;28;20124;-71
2022/05/25 11:09:36;;;;;;;4.95;4.45;;;;;;;28.78;49.88;99991.44;5060620;28;20522;-71
2022/05/25 11:12:10;;;;;;;9.88;4.90;;;;;;;28.76;49.80;100001.91;5020346;28;20527;-71
2022/05/25 11:14:44;;;;;;;9.10;4.80;;;;;;;28.73;49.99;99996.91;5028271;28;20036;-71
2022/05/25 11:17:25;;;;;;;5.28;4.75;;;;;;;28.68;50.29;99980.28;5028730;28;20041;-72
2022/05/25 11:19:53;;;;;;;6.32;5.07;;;;;;;28.70;50.63;99986.41;5014046;28;20021;-70
2022/05/25 11:22:58;;;;;;;10.32;5.03;;;;;;;28.62;50.47;99971.13;5014993;28;20021;-71
2022/05/25 11:25:43;;;;;;;9.25;4.75;;;;;;;28.74;50.91;99990.28;5028498;28;20021;-70
2022/05/25 11:28:17;;;;;;;7.68;5.30;;;;;;;28.74;50.61;99990.28;5028322;28;20033;-72
2022/05/25 11:30:52;;;;;;;7.47;5.25;;;;;;;28.74;50.86;99985.63;5027208;28;20053;-71
2022/05/25 11:33:39;;;;;;;9.02;4.55;;;;;;;28.80;50.86;99986.50;5020074;28;20562;-71
2022/05/25 11:36:17;;;;;;;8.15;4.47;;;;;;;28.86;50.74;99988.22;5028141;28;20060;-65
2022/05/25 11:39:02;;;;;;;5.80;4.70;;;;;;;28.88;50.73;99991.56;5023380;28;20021;-67
2022/05/25 11:41:38;;;;;;;6.30;5.00;;;;;;;28.86;50.58;99971.66;5012025;28;20167;-66
2022/05/25 11:44:18;;;;;;;9.88;5.65;;;;;;;28.98;50.83;99988.91;5027858;28;20039;-66
2022/05/25 11:46:45;;;;;;;5.60;4.80;;;;;;;29.04;49.77;99974.88;5017010;28;20750;-66
2022/05/25 11:49:22;;;;;;;7.00;5.05;;;;;;;29.01;50.09;99980.09;5023465;28;20029;-67
2022/05/25 11:52:26;;;;;;;6.03;4.63;;;;;;;29.05;50.40;99986.78;5027622;28;20129;-67
2022/05/25 11:54:57;;;;;;;9.60;5.47;;;;;;;29.05;49.98;99989.53;5017042;28;20084;-66
2022/05/25 11:57:34;;;;;;;7.22;5.35;;;;;;;29.05;49.96;99990.34;5047618;28;20091;-66
2022/05/25 12:00:20;;;;;;;10.02;5.25;;;;;;;29.09;49.85;99977.69;5045723;28;20147;-67
2022/05/25 12:03:29;;;;;;;9.52;5.32;;;;;;;29.10;49.64;99984.03;5047344;28;20370;-67
2022/05/25 12:06:16;;;;;;;6.43;5.35;;;;;;;29.12;49.47;99977.19;5047639;28;20041;-66
2022/05/25 12:09:07;;;;;;;6.80;5.20;;;;;;;29.13;49.41;99969.72;5037251;28;20061;-68
2022/05/25 12:11:39;;;;;;;11.70;5.20;;;;;;;29.13;49.27;99973.31;5039848;28;20049;-67